Time;durP1;ratioP1;P1;durP2;ratioP2;P2;SDS_P1;SDS_P2;PMS_P1;PMS_P2;Temp;Humidity;BMP_temperature;BMP_pressure;BME280_temperature;BME280_humidity;BME280_pressure;Samples;Min_cycle;Max_cycle;Signal;HPM_P1;HPM_P2
2021/09/12 00:02:13;;;;;;;;;29.75;24.50;;;;;20.73;44.41;101446.50;4999986;28;45405;-58
2021/09/12 00:04:39;;;;;;;;;24.75;24.75;;;;;20.74;43.84;101429.53;5005690;28;45289;-58
2021/09/12 00:07:04;;;;;;;;;28.25;26.00;;;;;20.74;44.24;101428.66;5009196;28;45371;-58
2021/09/12 00:09:29;;;;;;;;;26.75;24.25;;;;;20.75;44.31;101431.28;5020293;28;45257;-58
2021/09/12 00:11:55;;;;;;;;;32.00;29.25;;;;;20.73;43.85;101426.94;5024981;28;45412;-58
2021/09/12 00:14:20;;;;;;;;;26.00;23.75;;;;;20.77;44.07;101431.19;5026062;28;46323;-58
2021/09/12 00:16:45;;;;;;;;;31.50;29.25;;;;;20.78;44.23;101430.28;5026230;28;45217;-56
2021/09/12 00:19:11;;;;;;;;;31.00;27.75;;;;;20.78;44.49;101436.47;5026365;28;45317;-56
2021/09/12 00:21:36;;;;;;;;;28.75;26.25;;;;;20.79;44.07;101426.63;5024997;28;45522;-58
2021/09/12 00:24:02;;;;;;;;;35.00;26.75;;;;;20.80;44.20;101432.88;5026140;28;45324;-58
2021/09/12 00:26:27;;;;;;;;;25.50;23.50;;;;;20.81;44.01;101429.25;5026129;28;45244;-58
2021/09/12 00:28:53;;;;;;;;;24.50;20.50;;;;;20.82;43.95;101425.63;5026205;28;45226;-58
2021/09/12 00:31:19;;;;;;;;;27.00;22.75;;;;;20.80;44.26;101428.38;5026115;28;45527;-58
2021/09/12 00:33:44;;;;;;;;;26.50;26.00;;;;;20.82;44.49;101426.50;5020647;28;45194;-58
2021/09/12 00:36:10;;;;;;;;;27.75;25.75;;;;;20.84;44.47;101431.78;5026276;28;45150;-58
2021/09/12 00:38:35;;;;;;;;;22.00;20.25;;;;;20.85;44.63;101434.38;5026070;28;45384;-58
2021/09/12 00:41:00;;;;;;;;;23.25;23.25;;;;;20.85;44.72;101436.19;5008165;28;45313;-58
2021/09/12 00:43:27;;;;;;;;;24.75;24.75;;;;;20.87;44.25;101426.31;5025896;28;45972;-58
2021/09/12 00:45:54;;;;;;;;;20.00;19.00;;;;;20.85;44.62;101421.00;5024698;28;45326;-58
2021/09/12 00:48:19;;;;;;;;;23.50;22.25;;;;;20.88;44.22;101430.69;5011817;28;45341;-58
2021/09/12 00:50:45;;;;;;;;;25.25;24.25;;;;;20.89;44.63;101424.41;5006153;28;45456;-58
2021/09/12 00:53:11;;;;;;;;;20.00;19.75;;;;;20.90;44.49;101428.81;5005883;28;45242;-58
2021/09/12 00:55:38;;;;;;;;;24.00;21.75;;;;;20.90;44.65;101431.50;5006056;28;45224;-58
2021/09/12 00:58:05;;;;;;;;;26.00;21.00;;;;;20.91;44.87;101435.91;5005557;28;45251;-58
2021/09/12 01:00:30;;;;;;;;;22.00;20.50;;;;;20.91;44.26;101425.22;5012251;28;45436;-58
2021/09/12 01:02:56;;;;;;;;;20.75;19.50;;;;;20.90;44.80;101424.31;5020752;28;45437;-58
2021/09/12 01:05:22;;;;;;;;;22.75;20.75;;;;;20.90;44.62;101420.81;5006079;28;45252;-58
2021/09/12 01:07:47;;;;;;;;;25.00;22.50;;;;;20.93;45.03;101418.00;5005828;28;45267;-58
2021/09/12 01:10:14;;;;;;;;;28.75;24.00;;;;;20.94;44.73;101419.72;5005955;28;45327;-58
2021/09/12 01:12:40;;;;;;;;;23.25;22.75;;;;;20.95;44.37;101416.09;5004271;28;47301;-58
2021/09/12 01:15:07;;;;;;;;;21.00;21.00;;;;;20.94;45.02;101409.91;5003428;28;45325;-58
2021/09/12 01:17:33;;;;;;;;;24.75;21.00;;;;;20.95;44.86;101413.44;5001143;28;45199;-58
2021/09/12 01:19:58;;;;;;;;;22.00;19.50;;;;;20.94;45.25;101414.38;5002299;28;45502;-58
2021/09/12 01:22:25;;;;;;;;;26.50;24.50;;;;;20.93;44.73;101413.53;5002364;28;46260;-58
2021/09/12 01:24:51;;;;;;;;;27.75;23.00;;;;;20.93;45.17;101407.31;5002476;28;45409;-58
2021/09/12 01:27:17;;;;;;;;;21.50;21.50;;;;;20.93;45.35;101401.97;5002233;28;45325;-58
2021/09/12 01:29:43;;;;;;;;;26.75;23.75;;;;;20.92;45.19;101405.59;5002343;28;45330;-59
2021/09/12 01:32:08;;;;;;;;;26.75;25.75;;;;;20.90;45.34;101402.97;5002031;28;45310;-58
2021/09/12 01:34:34;;;;;;;;;25.50;22.50;;;;;20.93;45.42;101410.00;5009303;28;45455;-58
2021/09/12 01:36:59;;;;;;;;;23.25;22.75;;;;;20.92;45.36;101406.44;5022327;28;45654;-58
2021/09/12 01:39:24;;;;;;;;;27.50;24.00;;;;;20.92;44.89;101411.78;5022205;28;45392;-58
2021/09/12 01:41:50;;;;;;;;;26.75;23.25;;;;;20.92;45.45;101405.59;5021647;28;45483;-58
2021/09/12 01:44:17;;;;;;;;;23.50;22.00;;;;;20.88;45.25;101407.53;5013726;28;45931;-58
2021/09/12 01:46:48;;;;;;;;;24.25;21.75;;;;;20.90;45.35;101404.78;5015016;28;45228;-58
2021/09/12 01:49:14;;;;;;;;;22.00;19.00;;;;;20.88;45.76;101402.19;5002087;28;45257;-58
2021/09/12 01:51:40;;;;;;;;;24.75;23.25;;;;;20.86;45.80;101404.06;5001627;28;46288;-58
2021/09/12 01:54:06;;;;;;;;;23.75;22.75;;;;;20.87;45.80;101407.59;5001944;28;45238;-58
2021/09/12 01:56:31;;;;;;;;;24.00;20.50;;;;;20.84;45.83;101397.06;5001793;28;45228;-58
2021/09/12 01:58:56;;;;;;;;;21.75;19.50;;;;;20.86;45.79;101397.84;5000634;28;45616;-58
2021/09/12 02:01:22;;;;;;;;;22.00;19.50;;;;;20.85;45.90;101404.13;5000500;28;47341;-58
2021/09/12 02:03:47;;;;;;;;;22.00;22.00;;;;;20.84;45.95;101399.72;5001617;28;45265;-58
2021/09/12 02:06:14;;;;;;;;;27.50;22.00;;;;;20.81;45.40;101400.72;5001847;28;45413;-58
2021/09/12 02:08:39;;;;;;;;;21.25;20.00;;;;;20.82;45.57;101398.91;5001827;28;45443;-58
2021/09/12 02:11:04;;;;;;;;;28.75;22.00;;;;;20.78;45.84;101401.75;5001456;28;45945;-58
2021/09/12 02:13:30;;;;;;;;;22.25;20.50;;;;;20.77;46.15;101404.50;5001783;28;45417;-58
2021/09/12 02:15:55;;;;;;;;;23.50;21.00;;;;;20.78;45.91;101408.91;5001688;28;45354;-58
2021/09/12 02:18:21;;;;;;;;;22.75;21.25;;;;;20.77;46.02;101407.16;5007447;28;45406;-58
2021/09/12 02:20:46;;;;;;;;;21.00;18.75;;;;;20.76;45.40;101402.75;5007274;28;46525;-58
2021/09/12 02:23:12;;;;;;;;;21.00;20.25;;;;;20.75;45.62;101406.34;5001883;28;45466;-58
2021/09/12 02:25:37;;;;;;;;;25.00;22.25;;;;;20.73;45.95;101406.44;5001544;28;45850;-58
2021/09/12 02:28:03;;;;;;;;;23.25;19.75;;;;;20.72;45.64;101403.84;5002682;28;45350;-58
2021/09/12 02:30:28;;;;;;;;;23.25;20.00;;;;;20.73;46.26;101417.13;5015099;28;45330;-58
2021/09/12 02:32:54;;;;;;;;;22.25;21.00;;;;;20.72;45.72;101419.88;5019724;28;45498;-58
2021/09/12 02:35:20;;;;;;;;;22.75;22.75;;;;;20.70;46.04;101417.22;5019714;28;45475;-58
2021/09/12 02:37:45;;;;;;;;;27.50;22.00;;;;;20.70;45.81;101422.56;5021328;28;45299;-58
2021/09/12 02:40:11;;;;;;;;;21.75;20.50;;;;;20.71;45.79;101421.66;5020960;28;45372;-58
2021/09/12 02:42:38;;;;;;;;;23.75;20.75;;;;;20.71;45.96;101418.97;5021177;28;45212;-58
2021/09/12 02:45:05;;;;;;;;;21.00;20.75;;;;;20.69;46.13;101420.84;5020983;28;45489;-58
2021/09/12 02:47:30;;;;;;;;;23.50;22.25;;;;;20.70;45.83;101422.56;5000882;28;45359;-58
2021/09/12 02:49:56;;;;;;;;;20.50;19.00;;;;;20.70;45.98;101419.03;5000916;28;46191;-58
2021/09/12 02:52:21;;;;;;;;;21.00;21.00;;;;;20.71;45.89;101421.66;5001229;28;45399;-58
2021/09/12 02:54:46;;;;;;;;;23.75;18.75;;;;;20.69;45.92;101412.84;5013047;28;45542;-58
2021/09/12 02:57:12;;;;;;;;;21.50;19.50;;;;;20.72;46.10;101414.53;5015881;28;45527;-58
2021/09/12 02:59:37;;;;;;;;;19.00;19.00;;;;;20.70;46.07;101411.88;5000911;28;45943;-58
2021/09/12 03:02:02;;;;;;;;;21.25;19.50;;;;;20.71;45.86;101412.78;5015698;28;45333;-58
2021/09/12 03:04:28;;;;;;;;;18.00;18.00;;;;;20.69;46.44;101409.28;5013754;28;45301;-59
2021/09/12 03:06:53;;;;;;;;;18.25;16.75;;;;;20.68;46.23;101411.09;5020671;28;45312;-58
2021/09/12 03:09:18;;;;;;;;;21.50;20.00;;;;;20.69;46.31;101409.28;5020640;28;45368;-58
2021/09/12 03:11:45;;;;;;;;;19.75;17.50;;;;;20.67;46.13;101403.16;5020667;28;45385;-58
2021/09/12 03:14:10;;;;;;;;;20.75;19.25;;;;;20.68;45.98;101404.88;5019279;28;45362;-59
2021/09/12 03:16:35;;;;;;;;;19.75;18.00;;;;;20.67;46.33;101406.69;5020271;28;45233;-58
2021/09/12 03:19:01;;;;;;;;;18.00;16.25;;;;;20.66;45.94;101412.09;5020466;28;45227;-58
2021/09/12 03:21:26;;;;;;;;;17.00;16.25;;;;;20.63;46.39;101402.44;5020270;28;45225;-58
2021/09/12 03:23:51;;;;;;;;;18.75;15.00;;;;;20.60;45.83;101397.22;5020594;28;45163;-58
2021/09/12 03:26:17;;;;;;;;;16.00;13.25;;;;;20.55;45.90;101394.78;5020580;28;45483;-57
2021/09/12 03:28:42;;;;;;;;;15.00;14.00;;;;;20.60;46.25;101405.22;5020233;28;45381;-58
2021/09/12 03:31:08;;;;;;;;;15.00;13.50;;;;;20.58;45.76;101407.97;5020161;28;45308;-59
2021/09/12 03:33:33;;;;;;;;;15.00;13.25;;;;;20.57;46.04;101392.88;5016241;28;45230;-57
2021/09/12 03:35:58;;;;;;;;;18.25;16.00;;;;;20.55;45.92;101400.13;5019180;28;45588;-57
2021/09/12 03:38:24;;;;;;;;;16.00;14.00;;;;;20.54;45.78;101400.16;5019661;28;45400;-58
2021/09/12 03:40:49;;;;;;;;;14.25;13.75;;;;;20.53;46.31;101403.78;5020199;28;45321;-58
2021/09/12 03:43:15;;;;;;;;;14.00;13.25;;;;;20.52;45.78;101404.72;5020203;28;45187;-58
2021/09/12 03:45:41;;;;;;;;;18.25;16.00;;;;;20.50;45.90;101406.59;5019953;28;46278;-58
2021/09/12 03:48:06;;;;;;;;;19.00;16.25;;;;;20.47;45.93;101404.94;5007786;28;45886;-58
2021/09/12 03:50:32;;;;;;;;;15.25;15.00;;;;;20.46;46.02;101403.19;4999970;28;45338;-57
2021/09/12 03:52:57;;;;;;;;;16.50;15.25;;;;;20.42;46.01;101401.59;5000386;28;45258;-57
2021/09/12 03:55:23;;;;;;;;;19.25;15.25;;;;;20.39;45.78;101397.28;5000012;28;45460;-58
2021/09/12 03:57:49;;;;;;;;;14.00;12.75;;;;;20.36;45.73;101399.22;4999817;28;46285;-57
2021/09/12 04:00:14;;;;;;;;;13.50;13.50;;;;;20.36;45.79;101402.72;4999930;28;45393;-57
2021/09/12 04:02:41;;;;;;;;;13.00;12.75;;;;;20.35;46.33;101402.81;5000064;28;45440;-58
2021/09/12 04:05:07;;;;;;;;;14.50;14.25;;;;;20.32;46.01;101401.16;5000022;28;45238;-58
2021/09/12 04:07:32;;;;;;;;;16.00;13.50;;;;;20.32;46.15;101400.28;4999957;28;46422;-58
2021/09/12 04:09:58;;;;;;;;;17.50;16.00;;;;;20.29;46.37;101398.63;4998361;28;45286;-57
2021/09/12 04:12:23;;;;;;;;;14.50;14.00;;;;;20.27;45.76;101397.81;5000104;28;45279;-58
2021/09/12 04:14:49;;;;;;;;;20.25;19.25;;;;;20.25;46.36;101394.34;4999738;28;45206;-58
2021/09/12 04:17:15;;;;;;;;;17.25;14.50;;;;;20.24;46.32;101392.63;4999849;28;45226;-58
2021/09/12 04:19:40;;;;;;;;;15.00;15.00;;;;;20.21;45.91;101388.28;5000027;28;45750;-58
2021/09/12 04:22:06;;;;;;;;;15.25;15.25;;;;;20.18;46.36;101390.22;4999925;28;45389;-57
2021/09/12 04:24:31;;;;;;;;;14.75;13.00;;;;;20.18;46.33;101390.22;5016351;28;45334;-57
2021/09/12 04:26:57;;;;;;;;;16.00;14.25;;;;;20.17;46.19;101396.50;5008246;28;46198;-58
2021/09/12 04:29:22;;;;;;;;;15.00;14.50;;;;;20.12;46.47;101394.91;4999754;28;45305;-58
2021/09/12 04:31:48;;;;;;;;;15.00;14.00;;;;;20.12;46.33;101389.56;4999721;28;45833;-58
2021/09/12 04:34:14;;;;;;;;;16.00;15.50;;;;;20.10;46.53;101387.88;5003967;28;45363;-57
2021/09/12 04:36:40;;;;;;;;;13.00;13.00;;;;;20.07;46.28;101390.69;5019328;28;45356;-59
2021/09/12 04:39:05;;;;;;;;;19.25;16.00;;;;;20.05;45.89;101395.22;5019378;28;45312;-58
2021/09/12 04:41:31;;;;;;;;;13.25;13.00;;;;;20.03;46.40;101395.28;5018209;28;45322;-58
2021/09/12 04:43:56;;;;;;;;;15.50;15.50;;;;;20.00;46.32;101395.44;5017974;28;45308;-58
2021/09/12 04:46:21;;;;;;;;;16.75;16.50;;;;;19.95;46.41;101387.63;5019357;28;45325;-58
2021/09/12 04:48:47;;;;;;;;;15.00;13.50;;;;;19.94;46.41;101393.03;5001348;28;45164;-58
2021/09/12 04:51:12;;;;;;;;;16.00;16.00;;;;;19.93;45.99;101399.31;5002300;28;45700;-58
2021/09/12 04:53:37;;;;;;;;;20.00;17.25;;;;;19.91;46.48;101391.38;5001480;28;45320;-58
2021/09/12 04:56:03;;;;;;;;;15.75;14.25;;;;;19.88;45.99;101393.31;5012351;28;45285;-57
2021/09/12 04:58:28;;;;;;;;;17.50;15.25;;;;;19.87;45.94;101394.22;5005167;28;45253;-58
2021/09/12 05:00:54;;;;;;;;;16.25;16.00;;;;;19.84;46.11;101394.38;5001756;28;45433;-58
2021/09/12 05:03:19;;;;;;;;;16.75;16.00;;;;;19.82;46.00;101397.03;5001363;28;45247;-58
2021/09/12 05:05:45;;;;;;;;;15.75;15.00;;;;;19.79;46.12;101400.72;5003013;28;45197;-58
2021/09/12 05:08:10;;;;;;;;;12.75;12.75;;;;;19.75;46.65;101391.13;5002573;28;45282;-58
2021/09/12 05:10:35;;;;;;;;;14.00;14.00;;;;;19.73;46.40;101394.78;5012333;28;45384;-60
2021/09/12 05:13:01;;;;;;;;;14.50;13.50;;;;;19.70;46.52;101397.56;5004978;28;45250;-58
2021/09/12 05:15:26;;;;;;;;;16.75;14.50;;;;;19.67;46.23;101405.72;5002448;28;45353;-58
2021/09/12 05:17:51;;;;;;;;;17.00;16.00;;;;;19.63;46.34;101408.50;5002358;28;45328;-58
2021/09/12 05:20:17;;;;;;;;;16.00;13.50;;;;;19.61;46.05;101398.84;5002654;28;45419;-57
2021/09/12 05:22:42;;;;;;;;;13.50;13.50;;;;;19.59;46.04;101400.69;5002463;28;45372;-58
2021/09/12 05:25:09;;;;;;;;;18.00;15.75;;;;;19.57;46.31;101399.88;5002421;28;46210;-58
2021/09/12 05:27:34;;;;;;;;;14.25;13.25;;;;;19.54;46.44;101397.34;5002134;28;45367;-58
2021/09/12 05:29:59;;;;;;;;;14.25;13.25;;;;;19.52;46.33;101400.09;5002421;28;45384;-58
2021/09/12 05:32:25;;;;;;;;;15.75;12.50;;;;;19.48;46.45;101396.69;5017862;28;45460;-58
2021/09/12 05:34:51;;;;;;;;;15.00;13.50;;;;;19.47;46.51;101402.06;5016533;28;45617;-58
2021/09/12 05:37:17;;;;;;;;;17.00;14.50;;;;;19.44;46.43;101400.38;5022024;28;45262;-58
2021/09/12 05:39:42;;;;;;;;;15.50;12.25;;;;;19.43;46.38;101403.13;5022325;28;45745;-58
2021/09/12 05:42:08;;;;;;;;;12.75;10.75;;;;;19.40;46.41;101401.44;5020484;28;45179;-57
2021/09/12 05:44:33;;;;;;;;;14.50;12.75;;;;;19.37;46.27;101396.25;5021999;28;45823;-57
2021/09/12 05:46:59;;;;;;;;;14.00;12.75;;;;;19.35;46.31;101395.44;5007297;28;45274;-58
2021/09/12 05:49:25;;;;;;;;;14.25;13.75;;;;;19.34;46.22;101399.03;5020823;28;45242;-58
2021/09/12 05:51:50;;;;;;;;;19.00;16.50;;;;;19.33;46.07;101406.16;5021845;28;45260;-58
2021/09/12 05:54:16;;;;;;;;;17.00;16.00;;;;;19.31;46.72;101404.50;5021809;28;45453;-57
2021/09/12 05:56:41;;;;;;;;;14.00;12.00;;;;;19.29;46.36;101401.00;5020209;28;45698;-58
2021/09/12 05:59:08;;;;;;;;;17.00;14.25;;;;;19.29;46.03;101403.69;5021904;28;45303;-58
2021/09/12 06:01:33;;;;;;;;;15.50;14.25;;;;;19.26;46.30;101403.81;5021163;28;45267;-58
2021/09/12 06:03:58;;;;;;;;;13.25;11.00;;;;;19.26;46.78;101410.00;5020265;28;47169;-58
2021/09/12 06:06:24;;;;;;;;;15.25;13.50;;;;;19.25;46.80;101404.75;5021589;28;45335;-58
2021/09/12 06:08:49;;;;;;;;;15.50;10.75;;;;;19.23;46.55;101410.13;5021821;28;45487;-58
2021/09/12 06:11:14;;;;;;;;;11.50;11.50;;;;;19.21;46.40;101414.66;5020265;28;45393;-57
2021/09/12 06:13:40;;;;;;;;;17.00;13.25;;;;;19.21;46.52;101409.31;5021307;28;45309;-58
2021/09/12 06:16:07;;;;;;;;;14.75;13.25;;;;;19.20;46.33;101409.38;5020185;28;45948;-58
2021/09/12 06:18:33;;;;;;;;;12.75;12.75;;;;;19.20;46.50;101404.91;5021566;28;45237;-58
2021/09/12 06:20:58;;;;;;;;;14.00;13.25;;;;;19.18;46.54;101412.09;5021271;28;45361;-58
2021/09/12 06:23:24;;;;;;;;;16.25;13.25;;;;;19.18;46.49;101417.41;5021284;28;46291;-58
2021/09/12 06:25:49;;;;;;;;;15.75;14.50;;;;;19.15;46.50;101409.56;5021193;28;45250;-57
2021/09/12 06:28:15;;;;;;;;;13.75;12.75;;;;;19.16;46.50;101412.16;5021468;28;45207;-57
2021/09/12 06:30:42;;;;;;;;;15.50;15.00;;;;;19.16;46.50;101420.16;5021158;28;45305;-57
2021/09/12 06:33:07;;;;;;;;;18.00;16.00;;;;;19.15;46.77;101417.56;5019230;28;46163;-58
2021/09/12 06:35:32;;;;;;;;;15.50;14.25;;;;;19.16;46.31;101420.16;5016340;28;45316;-58
2021/09/12 06:37:58;;;;;;;;;11.25;9.75;;;;;19.16;46.83;101420.16;5021634;28;45354;-58
2021/09/12 06:40:29;;;;;;;;;16.50;13.75;;;;;19.17;46.83;101421.88;5020971;28;45466;-58
2021/09/12 06:42:55;;;;;;;;;12.75;12.75;;;;;19.16;46.83;101417.47;5020959;28;46341;-57
2021/09/12 06:45:20;;;;;;;;;15.50;14.50;;;;;19.18;46.56;101420.09;5018431;28;45260;-57
2021/09/12 06:47:45;;;;;;;;;17.25;15.50;;;;;19.19;46.75;101416.50;5001156;28;45341;-58
2021/09/12 06:50:11;;;;;;;;;15.75;14.25;;;;;19.19;46.93;101424.50;5001017;28;45314;-58
2021/09/12 06:52:36;;;;;;;;;14.50;14.25;;;;;19.19;46.92;101416.50;5001123;28;45954;-57
2021/09/12 06:55:02;;;;;;;;;16.00;13.50;;;;;19.19;46.45;101420.97;5001018;28;45528;-57
2021/09/12 06:57:27;;;;;;;;;16.25;16.25;;;;;19.19;47.21;101420.97;5000918;28;45301;-57
2021/09/12 06:59:53;;;;;;;;;19.50;18.75;;;;;19.20;47.15;101420.03;5000835;28;45424;-57
2021/09/12 07:02:18;;;;;;;;;16.00;13.50;;;;;19.22;46.95;101420.84;5004709;28;46283;-57
2021/09/12 07:04:43;;;;;;;;;17.25;16.50;;;;;19.23;46.82;101414.59;5015965;28;45462;-57
2021/09/12 07:07:09;;;;;;;;;15.25;15.25;;;;;19.25;46.96;101418.06;5021024;28;45418;-58
2021/09/12 07:09:34;;;;;;;;;15.75;13.50;;;;;19.26;46.92;101412.66;5019216;28;45260;-58
2021/09/12 07:12:00;;;;;;;;;14.25;12.25;;;;;19.28;47.23;101420.59;5020619;28;45258;-58
2021/09/12 07:14:25;;;;;;;;;16.25;16.00;;;;;19.29;46.78;101417.00;5019603;28;45338;-57
2021/09/12 07:16:50;;;;;;;;;15.50;12.75;;;;;19.31;47.20;101412.50;5020542;28;45770;-57
2021/09/12 07:19:16;;;;;;;;;16.25;14.50;;;;;19.33;46.72;101416.81;5020346;28;45431;-58
2021/09/12 07:21:41;;;;;;;;;20.00;19.50;;;;;19.36;46.93;101415.84;5019009;28;46027;-57
2021/09/12 07:24:06;;;;;;;;;20.25;18.75;;;;;19.37;46.84;101416.69;5019171;28;45322;-58
2021/09/12 07:26:32;;;;;;;;;15.00;13.75;;;;;19.42;46.82;101422.69;5020782;28;45670;-57
2021/09/12 07:28:57;;;;;;;;;13.75;13.75;;;;;19.44;47.06;101428.84;5020197;28;45634;-57
2021/09/12 07:31:22;;;;;;;;;15.75;13.25;;;;;19.46;47.01;101438.50;5020076;28;46094;-58
2021/09/12 07:33:48;;;;;;;;;15.75;14.25;;;;;19.49;47.26;101424.19;5015197;28;45317;-57
2021/09/12 07:36:13;;;;;;;;;15.25;14.00;;;;;19.49;46.95;101421.53;5020600;28;45208;-58
2021/09/12 07:38:39;;;;;;;;;10.75;10.75;;;;;19.56;47.28;101425.69;5020126;28;45158;-58
2021/09/12 07:41:04;;;;;;;;;13.00;11.50;;;;;19.59;47.34;101422.03;5018829;28;47005;-57
2021/09/12 07:43:29;;;;;;;;;12.50;11.00;;;;;19.62;47.04;101425.44;5005472;28;45202;-58
2021/09/12 07:45:55;;;;;;;;;13.75;10.00;;;;;19.66;47.32;101420.84;5018980;28;45623;-58
2021/09/12 07:48:21;;;;;;;;;13.75;10.00;;;;;19.70;47.52;101421.56;5005782;28;45494;-57
2021/09/12 07:50:46;;;;;;;;;8.00;8.00;;;;;19.74;46.80;101420.53;5000132;28;46222;-57
2021/09/12 07:53:12;;;;;;;;;9.00;8.00;;;;;19.76;47.06;101416.84;5000188;28;45331;-58
2021/09/12 07:55:37;;;;;;;;;8.50;8.00;;;;;19.83;46.89;101424.63;5000454;28;45447;-58
2021/09/12 07:58:03;;;;;;;;;9.00;7.50;;;;;19.85;47.28;101428.09;5000005;28;45295;-58
2021/09/12 08:00:28;;;;;;;;;7.00;7.00;;;;;19.91;47.31;101427.81;5000169;28;45313;-58
2021/09/12 08:02:54;;;;;;;;;6.50;6.00;;;;;19.95;46.90;101429.44;5000062;28;45406;-58
2021/09/12 08:05:19;;;;;;;;;7.75;7.50;;;;;20.02;46.83;101436.22;5000539;28;45310;-58
2021/09/12 08:07:44;;;;;;;;;6.25;6.25;;;;;20.07;46.84;101428.91;5000112;28;45424;-58
2021/09/12 08:10:11;;;;;;;;;5.00;5.00;;;;;20.12;47.05;101429.59;4999976;28;46139;-58
2021/09/12 08:12:36;;;;;;;;;5.00;5.00;;;;;20.19;46.79;101426.63;4999958;28;45326;-58
2021/09/12 08:15:02;;;;;;;;;6.00;6.00;;;;;20.23;47.40;101431.78;5000183;28;45209;-58
2021/09/12 08:17:27;;;;;;;;;6.00;6.00;;;;;20.30;47.18;101430.56;4999929;28;45235;-58
2021/09/12 08:19:53;;;;;;;;;6.75;6.75;;;;;20.36;46.74;101431.22;5005184;28;45977;-58
2021/09/12 08:22:18;;;;;;;;;6.00;6.00;;;;;20.43;46.64;101430.03;5006370;28;45353;-58
2021/09/12 08:24:43;;;;;;;;;7.25;6.75;;;;;20.52;46.86;101439.44;5001685;28;45317;-58
2021/09/12 08:27:09;;;;;;;;;6.25;5.50;;;;;20.58;46.58;101434.66;5003270;28;45342;-58
2021/09/12 08:29:34;;;;;;;;;5.00;5.00;;;;;20.65;46.66;101437.06;5003270;28;46126;-58
2021/09/12 08:32:00;;;;;;;;;9.25;7.50;;;;;20.73;46.43;101441.16;5014745;28;45269;-58
2021/09/12 08:34:27;;;;;;;;;7.75;7.00;;;;;20.81;46.42;101434.59;5018270;28;45326;-58
2021/09/12 08:36:53;;;;;;;;;7.50;7.00;;;;;20.87;46.64;101432.50;5003284;28;45510;-58
2021/09/12 08:39:19;;;;;;;;;8.25;7.50;;;;;20.95;46.71;101432.13;5002996;28;45576;-58
2021/09/12 08:41:44;;;;;;;;;8.50;6.75;;;;;21.05;46.26;101432.56;5002986;28;45291;-58
2021/09/12 08:44:16;;;;;;;;;8.00;7.25;;;;;21.13;46.36;101437.56;5003353;28;45237;-58
2021/09/12 08:46:41;;;;;;;;;9.75;7.50;;;;;21.19;46.85;101431.91;5016314;28;45349;-58
2021/09/12 08:49:07;;;;;;;;;9.00;7.75;;;;;21.29;46.27;101437.69;5002965;28;46245;-58
2021/09/12 08:51:32;;;;;;;;;5.75;5.75;;;;;21.34;46.45;101433.84;5002846;28;45344;-58
2021/09/12 08:53:58;;;;;;;;;6.00;6.00;;;;;21.43;46.16;101429.84;5003400;28;45386;-58
2021/09/12 08:56:23;;;;;;;;;9.25;6.25;;;;;21.53;46.05;101430.28;5002777;28;45319;-58
2021/09/12 08:58:49;;;;;;;;;8.00;8.00;;;;;21.59;46.15;101421.97;5002881;28;45865;-58
2021/09/12 09:01:14;;;;;;;;;9.50;7.00;;;;;21.68;46.10;101426.00;5002944;28;45455;-58
2021/09/12 09:03:41;;;;;;;;;15.25;12.25;;;;;21.74;45.94;101415.00;5002762;28;45522;-58
2021/09/12 09:06:14;;;;;;;;;8.00;7.00;;;;;21.84;46.22;101416.25;5003013;28;45174;-58
2021/09/12 09:08:54;;;;;;;;;5.00;5.00;;;;;21.93;46.26;101420.25;5010029;28;47077;-58
2021/09/12 09:11:28;;;;;;;;;8.75;8.00;;;;;22.00;45.94;101421.69;5022389;28;45262;-58
2021/09/12 09:13:53;;;;;;;;;5.25;5.25;;;;;22.06;45.64;101424.06;5022434;28;45238;-58
2021/09/12 09:16:28;;;;;;;;;6.00;5.00;;;;;22.16;45.53;101424.44;5020808;28;45542;-57
2021/09/12 09:19:05;;;;;;;;;8.25;8.25;;;;;22.24;45.60;101421.38;5021039;28;47325;-58
2021/09/12 09:21:33;;;;;;;;;10.75;10.75;;;;;22.35;45.92;101432.38;5020754;28;45373;-58
2021/09/12 09:24:06;;;;;;;;;6.50;5.00;;;;;22.44;45.45;101424.81;5022542;28;45281;-58
2021/09/12 09:26:31;;;;;;;;;6.50;6.00;;;;;22.52;45.75;101427.94;5022280;28;45289;-58
2021/09/12 09:28:57;;;;;;;;;7.25;7.00;;;;;22.60;45.37;101428.38;5020661;28;47527;-58
2021/09/12 09:31:25;;;;;;;;;7.25;6.00;;;;;22.69;45.11;101429.69;5022037;28;45450;-59
2021/09/12 09:33:50;;;;;;;;;8.25;7.25;;;;;22.78;45.62;101429.22;5017181;28;45343;-58
2021/09/12 09:36:18;;;;;;;;;6.50;6.00;;;;;22.86;45.29;101424.28;5021439;28;45245;-58
2021/09/12 09:38:46;;;;;;;;;9.75;8.00;;;;;22.95;45.17;101430.94;5021869;28;46333;-58
2021/09/12 09:41:20;;;;;;;;;8.00;6.75;;;;;23.01;44.80;101425.25;5022062;28;45471;-58
2021/09/12 09:43:53;;;;;;;;;6.50;6.50;;;;;23.11;44.94;101430.97;5021895;28;45476;-58
2021/09/12 09:46:28;;;;;;;;;4.00;4.00;;;;;23.17;44.82;101419.06;5011488;28;45318;-58
2021/09/12 09:48:54;;;;;;;;;5.50;4.75;;;;;23.22;44.84;101422.34;5001770;28;46266;-58
2021/09/12 09:51:20;;;;;;;;;8.25;6.00;;;;;23.31;44.76;101420.97;5001941;28;45243;-59
2021/09/12 09:53:46;;;;;;;;;4.50;4.50;;;;;23.35;44.79;101414.47;5002066;28;45432;-58
2021/09/12 09:56:12;;;;;;;;;6.50;5.75;;;;;23.44;44.71;101413.06;5001824;28;45470;-58
2021/09/12 09:58:38;;;;;;;;;7.00;6.00;;;;;23.52;44.53;101416.16;5001688;28;45361;-58
2021/09/12 10:01:03;;;;;;;;;8.50;7.50;;;;;23.60;44.55;101419.28;5002078;28;45336;-58
2021/09/12 10:03:29;;;;;;;;;6.50;5.75;;;;;23.66;44.32;101420.72;5018714;28;45308;-58
2021/09/12 10:05:55;;;;;;;;;8.50;7.00;;;;;23.74;44.59;101421.13;5010677;28;45313;-58
2021/09/12 10:08:21;;;;;;;;;7.75;7.00;;;;;23.82;44.50;101418.88;5001590;28;46481;-58
2021/09/12 10:10:48;;;;;;;;;8.00;6.00;;;;;23.88;44.33;101412.25;5011757;28;45407;-58
2021/09/12 10:13:15;;;;;;;;;5.00;5.00;;;;;23.97;44.49;101418.94;5020256;28;45586;-58
2021/09/12 10:15:42;;;;;;;;;7.00;5.00;;;;;24.07;44.30;101413.88;5010075;28;45607;-58
2021/09/12 10:18:09;;;;;;;;;9.50;6.00;;;;;24.14;44.27;101410.72;5001251;28;45433;-58
2021/09/12 10:20:37;;;;;;;;;6.00;6.00;;;;;24.26;44.27;101414.47;5001664;28;45428;-58
2021/09/12 10:23:12;;;;;;;;;7.00;7.00;;;;;24.37;43.85;101411.13;5001588;28;45330;-58
2021/09/12 10:25:46;;;;;;;;;4.00;3.00;;;;;24.48;43.51;101405.94;5001761;28;45429;-58
2021/09/12 10:28:11;;;;;;;;;6.50;4.25;;;;;24.58;43.60;101399.97;5009291;28;45283;-58
2021/09/12 10:30:42;;;;;;;;;6.50;6.50;;;;;24.69;43.76;101394.84;5021247;28;45217;-58
2021/09/12 10:33:07;;;;;;;;;6.75;6.00;;;;;24.78;43.37;101399.63;5020901;28;45320;-56
2021/09/12 10:35:50;;;;;;;;;6.00;6.00;;;;;24.88;43.66;101399.03;5016530;28;45254;-56
2021/09/12 10:38:31;;;;;;;;;5.00;5.00;;;;;24.98;43.29;101394.78;5021258;28;45991;-56
2021/09/12 10:40:57;;;;;;;;;8.00;7.00;;;;;25.06;42.99;101403.22;5019707;28;45360;-56
2021/09/12 10:43:25;;;;;;;;;7.00;6.00;;;;;25.14;43.41;101389.28;5021036;28;45415;-58
2021/09/12 10:46:06;;;;;;;;;5.50;5.25;;;;;25.23;43.02;101396.75;5021199;28;45310;-58
2021/09/12 10:48:44;;;;;;;;;5.25;5.00;;;;;25.36;43.38;101387.84;5003761;28;46647;-57
2021/09/12 10:51:09;;;;;;;;;6.25;6.00;;;;;25.46;43.38;101392.56;5000999;28;45293;-58
2021/09/12 10:53:47;;;;;;;;;5.50;5.50;;;;;25.61;42.74;101392.50;5000996;28;45217;-57
2021/09/12 10:56:13;;;;;;;;;5.75;5.75;;;;;25.77;42.85;101387.78;5000896;28;45313;-57
2021/09/12 10:58:39;;;;;;;;;6.00;6.00;;;;;25.96;42.79;101394.56;5017516;28;46175;-56
2021/09/12 11:01:06;;;;;;;;;2.00;1.25;;;;;26.19;43.41;101389.44;5009321;28;45366;-56
2021/09/12 11:03:33;;;;;;;;;7.25;6.00;;;;;26.41;42.61;101387.00;5000759;28;45428;-56
2021/09/12 11:05:59;;;;;;;;;6.00;5.50;;;;;26.67;42.89;101383.38;5000865;28;45213;-54
2021/09/12 11:08:39;;;;;;;;;6.25;6.25;;;;;26.91;42.76;101378.91;5000609;28;45236;-56
2021/09/12 11:11:08;;;;;;;;;7.00;5.50;;;;;27.19;42.62;101373.31;5000882;28;45497;-57